Time;durP1;ratioP1;P1;durP2;ratioP2;P2;SDS_P1;SDS_P2;PMS_P1;PMS_P2;Temp;Humidity;BMP_temperature;BMP_pressure;BME280_temperature;BME280_humidity;BME280_pressure;Samples;Min_cycle;Max_cycle;Signal;HPM_P1;HPM_P2
2021/08/19 00:01:01;;;;;;;17.97;9.17;;;;;;;15.52;100.00;100522.53;2618607;39;20825;-54
2021/08/19 00:03:31;;;;;;;17.40;10.13;;;;;;;15.48;100.00;100512.91;2624729;36;20463;-56
2021/08/19 00:06:01;;;;;;;17.07;10.23;;;;;;;15.59;100.00;100517.44;2618182;46;20412;-55
2021/08/19 00:08:33;;;;;;;16.43;10.30;;;;;;;15.58;100.00;100511.34;2618770;47;20418;-51
2021/08/19 00:11:02;;;;;;;14.37;8.87;;;;;;;15.41;100.00;100518.84;2618221;47;20435;-52
2021/08/19 00:13:32;;;;;;;16.23;9.50;;;;;;;15.48;100.00;100512.91;2617967;47;20396;-50
2021/08/19 00:16:01;;;;;;;14.93;9.83;;;;;;;15.42;100.00;100511.94;2618177;46;20392;-54
2021/08/19 00:18:31;;;;;;;21.00;9.30;;;;;;;15.45;100.00;100512.88;2618378;47;20411;-55
2021/08/19 00:21:01;;;;;;;20.63;9.93;;;;;;;15.44;100.00;100512.84;2619506;46;20416;-53
2021/08/19 00:23:34;;;;;;;18.03;10.03;;;;;;;15.38;100.00;100511.88;2617878;47;20874;-52
2021/08/19 00:26:05;;;;;;;15.07;9.40;;;;;;;15.38;100.00;100513.59;2618066;47;20433;-52
2021/08/19 00:28:34;;;;;;;14.40;9.77;;;;;;;15.36;100.00;100503.19;2617878;47;20395;-54
2021/08/19 00:31:04;;;;;;;16.80;9.53;;;;;;;15.30;100.00;100499.59;2618091;46;20431;-54
2021/08/19 00:33:33;;;;;;;11.43;7.50;;;;;;;15.17;100.00;100499.38;2639491;36;20438;-51
2021/08/19 00:36:03;;;;;;;19.17;11.33;;;;;;;15.33;100.00;100494.47;2617926;47;20485;-49
2021/08/19 00:38:35;;;;;;;18.47;9.43;;;;;;;15.27;100.00;100494.34;2639007;36;20435;-51
2021/08/19 00:41:06;;;;;;;19.17;10.40;;;;;;;15.23;100.00;100496.88;2617909;47;20431;-52
2021/08/19 00:43:35;;;;;;;15.93;9.27;;;;;;;15.27;100.00;100494.34;2617549;47;20399;-51
2021/08/19 00:46:05;;;;;;;17.90;10.90;;;;;;;15.32;100.00;100495.28;2617499;47;20399;-53
2021/08/19 00:48:35;;;;;;;16.03;9.40;;;;;;;15.31;100.00;100496.13;2617785;39;20497;-52
2021/08/19 00:51:05;;;;;;;20.63;10.87;;;;;;;15.35;100.00;100493.66;2617945;47;20462;-54
2021/08/19 00:53:37;;;;;;;16.27;9.90;;;;;;;15.32;100.00;100495.28;2617547;47;20410;-53
2021/08/19 00:56:07;;;;;;;15.20;9.07;;;;;;;15.24;100.00;100500.38;2617871;47;20388;-51
2021/08/19 00:58:36;;;;;;;19.87;9.53;;;;;;;15.29;100.00;100500.44;2617521;54;20385;-53
2021/08/19 01:01:06;;;;;;;13.40;7.43;;;;;;;15.14;100.00;100499.31;2618048;47;20437;-55
2021/08/19 01:03:36;;;;;;;12.03;9.23;;;;;;;15.25;100.00;100505.59;2617451;47;20535;-53
2021/08/19 01:06:05;;;;;;;17.70;9.30;;;;;;;15.27;100.00;100504.75;2618847;47;20411;-53
2021/08/19 01:08:38;;;;;;;16.80;9.55;;;;;;;15.31;100.00;100491.81;2616650;47;20447;-55
2021/08/19 01:11:08;;;;;;;16.60;9.20;;;;;;;15.32;100.00;100493.56;2619124;47;20187;-53
2021/08/19 01:13:37;;;;;;;18.90;9.37;;;;;;;15.27;100.00;100502.16;2622658;36;20764;-51
2021/08/19 01:16:07;;;;;;;17.07;9.27;;;;;;;15.27;100.00;100507.34;2619007;47;20869;-50
2021/08/19 01:18:41;;;;;;;18.30;10.27;;;;;;;15.32;100.00;100513.47;2617699;47;20408;-52
2021/08/19 01:21:12;;;;;;;13.97;7.10;;;;;;;15.18;100.00;100515.84;2619013;54;20462;-52
2021/08/19 01:23:44;;;;;;;18.67;10.50;;;;;;;15.24;100.00;100514.22;2637788;36;20425;-54
2021/08/19 01:26:16;;;;;;;22.87;10.53;;;;;;;15.20;100.00;100521.94;2617424;47;20902;-53
2021/08/19 01:28:49;;;;;;;14.10;8.57;;;;;;;15.27;100.00;100517.75;2617164;47;20429;-51
2021/08/19 01:31:21;;;;;;;12.85;8.23;;;;;;;15.19;100.00;100523.69;2617707;47;20419;-57
2021/08/19 01:33:50;;;;;;;20.73;10.80;;;;;;;15.19;100.00;100520.19;2619246;36;20673;-56
2021/08/19 01:36:20;;;;;;;17.27;10.07;;;;;;;15.15;100.00;100518.38;2617665;47;20380;-52
2021/08/19 01:38:51;;;;;;;21.93;10.00;;;;;;;15.23;100.00;100524.59;2637451;36;20198;-53
2021/08/19 01:41:20;;;;;;;13.95;7.65;;;;;;;15.15;100.00;100533.97;2617899;47;20538;-52
2021/08/19 01:43:53;;;;;;;17.70;10.30;;;;;;;15.32;100.00;100523.88;2617818;39;20516;-52
2021/08/19 01:46:23;;;;;;;20.93;8.70;;;;;;;15.17;100.00;100514.94;2617692;47;20390;-55
2021/08/19 01:48:53;;;;;;;22.93;10.10;;;;;;;15.25;100.00;100529.00;2617120;47;20404;-52
2021/08/19 01:51:22;;;;;;;18.67;10.00;;;;;;;15.17;100.00;100522.75;2617666;47;20457;-53
2021/08/19 01:53:52;;;;;;;20.27;10.23;;;;;;;15.09;100.00;100526.94;2618012;39;20714;-55
2021/08/19 01:56:22;;;;;;;18.80;10.53;;;;;;;15.22;100.00;100528.91;2619453;39;20511;-53
2021/08/19 01:58:56;;;;;;;17.80;9.97;;;;;;;15.14;100.00;100529.63;2617938;47;20428;-50
2021/08/19 02:01:27;;;;;;;20.83;11.25;;;;;;;15.05;100.00;100526.00;2618782;46;20419;-53
2021/08/19 02:03:57;;;;;;;15.37;10.30;;;;;;;15.03;100.00;100527.66;2619651;47;20150;-55
2021/08/19 02:06:27;;;;;;;18.80;10.65;;;;;;;14.85;100.00;100529.06;2619781;47;20415;-52
2021/08/19 02:08:56;;;;;;;21.30;11.63;;;;;;;14.97;100.00;100544.03;2618926;46;20171;-52
2021/08/19 02:11:26;;;;;;;17.05;10.85;;;;;;;14.95;100.00;100550.91;2618712;46;20420;-50
2021/08/19 02:13:58;;;;;;;20.87;11.83;;;;;;;14.98;100.00;100550.09;2619236;46;20155;-51
2021/08/19 02:16:27;;;;;;;25.43;12.13;;;;;;;15.01;100.00;100559.69;2619695;46;20414;-54
2021/08/19 02:18:57;;;;;;;21.40;12.45;;;;;;;14.79;100.00;100559.22;2618370;47;20407;-52
2021/08/19 02:21:26;;;;;;;20.80;12.32;;;;;;;14.76;100.00;100574.75;2620296;39;20530;-52
2021/08/19 02:23:56;;;;;;;25.77;13.40;;;;;;;14.69;100.00;100569.41;2618401;46;20149;-51
2021/08/19 02:26:25;;;;;;;22.98;12.52;;;;;;;14.68;100.00;100578.00;2618505;47;20902;-53
2021/08/19 02:28:57;;;;;;;22.58;12.73;;;;;;;14.53;100.00;100564.69;2636829;36;20379;-52
2021/08/19 02:31:27;;;;;;;25.35;13.25;;;;;;;14.40;100.00;100572.19;2618481;47;20159;-52
2021/08/19 02:33:56;;;;;;;16.93;11.23;;;;;;;14.36;100.00;100570.38;2618610;39;20511;-52
2021/08/19 02:36:26;;;;;;;21.40;12.50;;;;;;;14.40;100.00;100567.00;2618246;46;20400;-52
2021/08/19 02:38:55;;;;;;;27.70;12.67;;;;;;;14.58;100.00;100570.88;2618051;47;20605;-51
2021/08/19 02:41:25;;;;;;;20.03;11.73;;;;;;;14.37;100.00;100572.16;2618407;54;20449;-52
2021/08/19 02:43:54;;;;;;;18.37;11.77;;;;;;;14.39;100.00;100586.03;2619880;36;20443;-53
2021/08/19 02:46:28;;;;;;;17.80;11.00;;;;;;;14.32;100.00;100584.13;2618494;46;20396;-53
2021/08/19 02:48:57;;;;;;;21.97;12.60;;;;;;;14.42;100.00;100585.22;2618055;46;20396;-53
2021/08/19 02:51:27;;;;;;;19.83;12.77;;;;;;;14.48;100.00;100579.28;2618464;47;20435;-54
2021/08/19 02:53:56;;;;;;;21.47;12.57;;;;;;;14.42;100.00;100580.88;2617509;46;20420;-49
2021/08/19 02:56:27;;;;;;;25.00;12.70;;;;;;;14.27;100.00;100576.25;2618277;47;20897;-53
2021/08/19 02:58:56;;;;;;;21.47;12.23;;;;;;;14.29;100.00;100578.84;2622429;36;20444;-51
2021/08/19 03:01:28;;;;;;;20.97;13.00;;;;;;;14.37;100.00;100572.16;2618541;47;20427;-54
2021/08/19 03:03:58;;;;;;;22.40;12.50;;;;;;;14.37;100.00;100574.75;2619572;46;20466;-51
2021/08/19 03:06:28;;;;;;;22.87;13.43;;;;;;;14.41;100.00;100578.28;2618335;47;20384;-51
2021/08/19 03:08:57;;;;;;;19.20;11.60;;;;;;;14.28;100.00;100571.91;2636043;36;20443;-53
2021/08/19 03:11:26;;;;;;;21.17;10.90;;;;;;;14.30;100.00;100565.03;2618764;39;20486;-55
2021/08/19 03:13:56;;;;;;;20.03;9.77;;;;;;;14.32;100.00;100568.56;2622962;36;20450;-54
2021/08/19 03:16:25;;;;;;;15.10;8.00;;;;;;;14.15;100.00;100562.97;2619345;46;20423;-52
2021/08/19 03:18:57;;;;;;;13.47;8.70;;;;;;;14.22;100.00;100551.00;2619026;39;20717;-55
2021/08/19 03:21:27;;;;;;;16.50;7.77;;;;;;;14.14;100.00;100554.31;2619686;46;20430;-53
2021/08/19 03:23:58;;;;;;;16.43;9.57;;;;;;;14.24;100.00;100554.50;2623507;36;20443;-54
2021/08/19 03:26:28;;;;;;;19.27;8.43;;;;;;;14.31;100.00;100548.66;2619479;47;20407;-54
2021/08/19 03:28:58;;;;;;;13.40;8.20;;;;;;;14.32;100.00;100547.78;2618744;36;20194;-52
2021/08/19 03:31:27;;;;;;;11.97;7.57;;;;;;;14.22;100.00;100551.00;2619540;46;20439;-51
2021/08/19 03:33:59;;;;;;;13.40;7.90;;;;;;;14.35;100.00;100547.84;2633268;36;20503;-54
2021/08/19 03:36:29;;;;;;;10.77;6.93;;;;;;;14.31;100.00;100551.25;2619414;47;20874;-50
2021/08/19 03:38:58;;;;;;;12.53;7.10;;;;;;;14.29;100.00;100545.13;2636765;36;20431;-52
2021/08/19 03:41:28;;;;;;;13.70;7.00;;;;;;;14.18;100.00;100540.56;2619548;54;20436;-51
2021/08/19 03:43:57;;;;;;;10.88;6.80;;;;;;;14.20;100.00;100550.09;2636937;36;20436;-49
2021/08/19 03:46:26;;;;;;;14.00;6.70;;;;;;;14.14;100.00;100549.13;2619295;46;20151;-53
2021/08/19 03:48:56;;;;;;;11.50;6.80;;;;;;;14.17;100.00;100549.16;2624560;36;20191;-53
2021/08/19 03:51:29;;;;;;;9.03;5.60;;;;;;;14.15;100.00;100553.47;2618651;46;20427;-54
2021/08/19 03:53:59;;;;;;;13.70;7.17;;;;;;;14.24;100.00;100550.22;2624235;36;20451;-55
2021/08/19 03:56:29;;;;;;;15.20;7.13;;;;;;;14.15;100.00;100560.38;2619354;47;20396;-53
2021/08/19 03:58:58;;;;;;;12.63;6.80;;;;;;;14.21;100.00;100551.84;2624159;36;20425;-52
2021/08/19 04:01:28;;;;;;;12.43;6.83;;;;;;;14.22;100.00;100553.59;2619449;47;20914;-49
2021/08/19 04:03:57;;;;;;;13.65;7.47;;;;;;;14.21;100.00;100549.25;2638159;36;20435;-53
2021/08/19 04:06:30;;;;;;;11.10;6.73;;;;;;;14.19;100.00;100554.41;2617976;47;20431;-53
2021/08/19 04:08:59;;;;;;;10.33;5.90;;;;;;;14.15;100.00;100548.28;2622122;36;20436;-51
2021/08/19 04:11:28;;;;;;;9.70;6.00;;;;;;;14.22;100.00;100545.81;2619453;54;20895;-49
2021/08/19 04:13:58;;;;;;;12.47;6.40;;;;;;;14.16;100.00;100546.56;2639792;36;20450;-55
2021/08/19 04:16:27;;;;;;;12.87;6.30;;;;;;;14.22;100.00;100551.00;2617981;46;20403;-51
2021/08/19 04:18:57;;;;;;;13.30;7.10;;;;;;;14.27;100.00;100549.41;2619214;31;20975;-50
2021/08/19 04:21:26;;;;;;;11.63;5.75;;;;;;;14.17;100.00;100556.09;2617798;46;20431;-54
2021/08/19 04:23:58;;;;;;;9.53;5.77;;;;;;;14.31;100.00;100559.88;2639781;36;20593;-53
2021/08/19 04:26:28;;;;;;;12.90;6.80;;;;;;;14.33;100.00;100562.53;2617921;47;20943;-52
2021/08/19 04:28:58;;;;;;;10.40;6.30;;;;;;;14.33;100.00;100562.53;2621346;36;20423;-53
2021/08/19 04:31:27;;;;;;;11.40;6.70;;;;;;;14.34;100.00;100566.88;2618118;47;20456;-50
2021/08/19 04:33:57;;;;;;;12.10;5.93;;;;;;;14.24;100.00;100562.28;2617758;36;20447;-52
2021/08/19 04:36:26;;;;;;;12.60;6.25;;;;;;;14.27;100.00;100560.69;2617925;47;20415;-55
2021/08/19 04:38:58;;;;;;;17.37;8.10;;;;;;;14.38;100.00;100558.31;2622736;36;20194;-52
2021/08/19 04:41:28;;;;;;;12.27;6.00;;;;;;;14.35;100.00;100570.34;2619551;47;20445;-52
2021/08/19 04:43:57;;;;;;;11.50;6.63;;;;;;;14.31;100.00;100572.00;2624581;36;20455;-53
2021/08/19 04:46:27;;;;;;;11.10;6.80;;;;;;;14.31;100.00;100569.41;2619077;47;20389;-50
2021/08/19 04:48:59;;;;;;;11.20;6.90;;;;;;;14.41;100.00;100563.56;2620716;36;20895;-49
2021/08/19 04:51:28;;;;;;;11.30;5.00;;;;;;;14.34;100.00;100560.78;2619242;47;20463;-50
2021/08/19 04:54:00;;;;;;;13.33;7.20;;;;;;;14.54;100.00;100569.03;2624528;36;20447;-52
2021/08/19 04:56:36;;;;;;;11.50;7.50;;;;;;;14.56;100.00;100573.41;2619154;47;20396;-51
2021/08/19 04:59:05;;;;;;;14.97;7.20;;;;;;;14.51;100.00;100569.84;2636089;36;20435;-52
2021/08/19 05:01:35;;;;;;;12.10;7.97;;;;;;;14.51;100.00;100564.66;2618097;47;20416;-53
2021/08/19 05:04:06;;;;;;;14.53;8.13;;;;;;;14.51;100.00;100577.63;2636862;36;20189;-50
2021/08/19 05:06:37;;;;;;;14.30;7.13;;;;;;;14.48;100.00;100585.38;2619234;47;20492;-54
2021/08/19 05:09:09;;;;;;;13.77;7.77;;;;;;;14.62;100.00;100595.19;2635447;36;20451;-54
2021/08/19 05:11:39;;;;;;;16.00;7.83;;;;;;;14.57;100.00;100605.47;2623247;36;20443;-54
2021/08/19 05:14:08;;;;;;;16.20;8.27;;;;;;;14.70;100.00;100617.88;2617757;47;20412;-51
2021/08/19 05:16:38;;;;;;;17.80;9.23;;;;;;;14.59;100.00;100614.16;2618874;47;20403;-53
2021/08/19 05:19:09;;;;;;;18.43;8.70;;;;;;;14.57;100.00;100632.28;2635481;36;20447;-53
2021/08/19 05:21:40;;;;;;;12.77;7.82;;;;;;;14.53;100.00;100622.69;2617249;47;20451;-53
2021/08/19 05:24:12;;;;;;;15.88;8.73;;;;;;;14.52;100.00;100627.84;2617591;47;20610;-53
2021/08/19 05:26:41;;;;;;;9.83;6.13;;;;;;;14.67;100.00;100617.78;2617407;47;20618;-54
2021/08/19 05:29:11;;;;;;;14.90;6.80;;;;;;;14.69;100.00;100626.50;2617651;47;20392;-51
2021/08/19 05:31:40;;;;;;;9.80;5.63;;;;;;;14.59;100.00;100621.94;2617744;47;20182;-52
2021/08/19 05:34:10;;;;;;;9.70;4.80;;;;;;;14.54;100.00;100623.56;2618319;47;20875;-55
2021/08/19 05:36:41;;;;;;;8.80;5.50;;;;;;;14.60;100.00;100618.50;2618299;46;20411;-54
2021/08/19 05:39:13;;;;;;;10.87;6.00;;;;;;;14.64;100.00;100615.16;2636246;36;20444;-51
2021/08/19 05:41:42;;;;;;;12.40;6.30;;;;;;;14.69;100.00;100623.03;2618398;46;20439;-54
2021/08/19 05:44:12;;;;;;;11.13;6.70;;;;;;;14.64;100.00;100622.94;2618531;46;20380;-53
2021/08/19 05:46:42;;;;;;;12.00;6.28;;;;;;;14.72;100.00;100631.75;2618189;46;20400;-56
2021/08/19 05:49:15;;;;;;;12.23;7.13;;;;;;;14.77;100.00;100639.69;2618578;46;20273;-53
2021/08/19 05:51:44;;;;;;;10.50;6.90;;;;;;;14.83;100.00;100638.97;2618337;46;20628;-52
2021/08/19 05:54:16;;;;;;;15.37;7.53;;;;;;;14.85;100.00;100634.66;2640555;36;20979;-53
2021/08/19 05:56:46;;;;;;;12.02;7.68;;;;;;;14.80;100.00;100636.28;2622723;36;20388;-51
2021/08/19 05:59:15;;;;;;;12.15;7.55;;;;;;;14.82;100.00;100632.03;2618228;46;20147;-50
2021/08/19 06:01:45;;;;;;;11.73;6.83;;;;;;;14.70;100.00;100628.25;2620910;36;20164;-54
2021/08/19 06:04:15;;;;;;;17.03;7.97;;;;;;;14.72;100.00;100626.56;2618332;46;20543;-52
2021/08/19 06:06:44;;;;;;;15.20;8.00;;;;;;;14.88;100.00;100632.16;2638860;36;20892;-54
2021/08/19 06:09:16;;;;;;;19.37;10.90;;;;;;;14.92;100.00;100628.75;2618053;47;20416;-54
2021/08/19 06:11:46;;;;;;;14.37;9.20;;;;;;;14.92;100.00;100631.34;2618264;46;20447;-54
2021/08/19 06:14:15;;;;;;;20.40;9.98;;;;;;;14.89;100.00;100636.50;2636188;36;20450;-54
2021/08/19 06:16:44;;;;;;;20.13;11.13;;;;;;;14.92;100.00;100633.97;2617755;46;20404;-49
2021/08/19 06:19:14;;;;;;;43.97;17.17;;;;;;;15.05;100.00;100636.81;2622667;36;20435;-52
2021/08/19 06:21:43;;;;;;;26.08;12.75;;;;;;;15.11;100.00;100639.56;2618078;46;20428;-51
2021/08/19 06:24:13;;;;;;;23.63;11.88;;;;;;;15.06;100.00;100641.16;2617164;47;20166;-55
2021/08/19 06:26:45;;;;;;;24.70;12.20;;;;;;;15.03;100.00;100651.50;2617989;46;20147;-52
2021/08/19 06:29:15;;;;;;;27.30;12.60;;;;;;;15.05;100.00;100645.50;2636217;36;20444;-53
2021/08/19 06:31:45;;;;;;;22.70;11.73;;;;;;;15.14;100.00;100650.03;2618690;39;21044;-49
2021/08/19 06:34:14;;;;;;;18.07;11.80;;;;;;;15.16;100.00;100650.03;2617998;54;20933;-54
2021/08/19 06:36:44;;;;;;;31.33;15.87;;;;;;;15.21;100.00;100657.09;2617981;54;20422;-50
2021/08/19 06:39:13;;;;;;;20.47;11.53;;;;;;;15.19;100.00;100648.41;2619103;47;20409;-53
2021/08/19 06:41:48;;;;;;;30.40;14.80;;;;;;;15.28;100.00;100645.09;2624105;36;20712;-50
2021/08/19 06:44:17;;;;;;;20.00;11.97;;;;;;;15.23;100.00;100645.00;2618386;46;20392;-52
2021/08/19 06:46:47;;;;;;;23.30;10.85;;;;;;;15.21;100.00;100645.81;2636462;36;20465;-50
2021/08/19 06:49:16;;;;;;;48.47;21.87;;;;;;;15.28;100.00;100647.69;2617965;47;20152;-51
2021/08/19 06:51:46;;;;;;;24.57;12.07;;;;;;;15.18;100.00;100656.16;2625016;36;20914;-55
2021/08/19 06:54:15;;;;;;;30.63;16.13;;;;;;;15.20;100.00;100655.34;2619630;46;20408;-52
2021/08/19 06:56:47;;;;;;;29.20;14.83;;;;;;;15.37;100.00;100654.81;2624418;36;20151;-53
2021/08/19 06:59:17;;;;;;;26.70;14.00;;;;;;;15.37;100.00;100660.00;2619572;46;20396;-54
2021/08/19 07:01:46;;;;;;;24.27;13.50;;;;;;;15.22;100.00;100652.75;2622252;36;20417;-52
2021/08/19 07:04:16;;;;;;;29.23;10.83;;;;;;;15.14;100.00;100657.81;2619766;46;20397;-52
2021/08/19 07:06:46;;;;;;;21.70;11.57;;;;;;;15.29;100.00;100659.88;2640124;36;20459;-52
2021/08/19 07:09:15;;;;;;;53.67;22.67;;;;;;;15.35;100.00;100653.91;2619468;54;20406;-53
2021/08/19 07:11:48;;;;;;;27.10;14.87;;;;;;;15.20;100.00;100655.34;2624854;36;20435;-53
2021/08/19 07:14:18;;;;;;;24.83;12.27;;;;;;;15.18;100.00;100654.41;2619507;47;20422;-52
2021/08/19 07:16:48;;;;;;;21.23;11.07;;;;;;;15.25;100.00;100652.84;2640381;36;20420;-52
2021/08/19 07:19:17;;;;;;;38.63;19.10;;;;;;;15.24;100.00;100654.56;2618785;47;20871;-51
2021/08/19 07:21:47;;;;;;;22.37;11.03;;;;;;;15.22;100.00;100653.66;2620992;36;20185;-51
2021/08/19 07:24:16;;;;;;;26.20;12.67;;;;;;;15.16;100.00;100665.63;2619425;46;20881;-52
2021/08/19 07:26:48;;;;;;;80.00;38.90;;;;;;;15.27;100.00;100656.34;2619214;46;20439;-56
2021/08/19 07:29:18;;;;;;;30.30;15.47;;;;;;;15.41;100.00;100660.94;2637202;36;20459;-51
2021/08/19 07:31:48;;;;;;;34.75;18.08;;;;;;;15.28;100.00;100655.50;2624756;36;20452;-52
2021/08/19 07:34:17;;;;;;;23.80;9.65;;;;;;;15.15;100.00;100656.97;2619548;46;20140;-49
2021/08/19 07:36:47;;;;;;;39.93;15.43;;;;;;;15.18;100.00;100661.34;2619372;39;20475;-54
2021/08/19 07:39:16;;;;;;;24.60;13.18;;;;;;;15.20;100.00;100657.94;2637231;36;20435;-52
2021/08/19 07:41:48;;;;;;;74.20;31.85;;;;;;;15.29;100.00;100667.66;2623450;36;20187;-52
2021/08/19 07:44:18;;;;;;;20.67;11.70;;;;;;;15.39;100.00;100660.94;2618311;46;20160;-53
2021/08/19 07:46:47;;;;;;;27.00;11.57;;;;;;;15.31;100.00;100667.69;2619064;47;20397;-52
2021/08/19 07:49:20;;;;;;;19.70;10.68;;;;;;;15.51;100.00;100657.69;2637098;36;20904;-50
2021/08/19 07:51:50;;;;;;;60.47;21.00;;;;;;;15.60;100.00;100665.69;2640361;36;20192;-53
2021/08/19 07:54:19;;;;;;;33.83;15.10;;;;;;;15.68;100.00;100663.22;2618349;47;20408;-53
2021/08/19 07:56:52;;;;;;;20.60;11.33;;;;;;;15.77;100.00;100663.41;2617793;47;20404;-53
2021/08/19 07:59:21;;;;;;;35.72;14.52;;;;;;;15.74;100.00;100663.34;2618335;47;20404;-51
2021/08/19 08:01:51;;;;;;;20.33;10.23;;;;;;;15.82;100.00;100663.47;2617659;47;20181;-58
2021/08/19 08:04:21;;;;;;;13.23;7.90;;;;;;;15.98;100.00;100664.66;2636433;36;21212;-54
2021/08/19 08:06:50;;;;;;;48.33;21.13;;;;;;;15.99;100.00;100656.00;2618871;47;20388;-52
2021/08/19 08:09:20;;;;;;;20.80;10.73;;;;;;;16.16;100.00;100655.44;2635727;36;20769;-54
2021/08/19 08:11:52;;;;;;;10.83;6.90;;;;;;;16.04;100.00;100650.88;2619525;36;20440;-55
2021/08/19 08:14:22;;;;;;;12.27;7.00;;;;;;;16.11;100.00;100659.69;2619524;47;20396;-50
2021/08/19 08:16:51;;;;;;;40.53;15.17;;;;;;;16.26;100.00;100662.53;2618317;47;20417;-54
2021/08/19 08:19:21;;;;;;;51.30;19.83;;;;;;;16.33;100.00;100659.22;2618470;47;20396;-56
2021/08/19 08:21:50;;;;;;;34.60;15.20;;;;;;;16.33;100.00;100654.00;2617958;46;20420;-57
2021/08/19 08:24:20;;;;;;;22.30;10.50;;;;;;;16.31;100.00;100655.69;2619385;47;20399;-51
2021/08/19 08:26:52;;;;;;;40.15;13.63;;;;;;;16.30;100.00;100648.72;2622735;36;20388;-54
2021/08/19 08:29:23;;;;;;;64.73;22.00;;;;;;;16.45;100.00;100657.63;2618236;47;20147;-53
2021/08/19 08:31:52;;;;;;;12.40;6.87;;;;;;;16.47;100.00;100648.13;2619197;39;20778;-53
2021/08/19 08:34:23;;;;;;;20.57;10.43;;;;;;;16.46;100.00;100643.78;2618900;47;20419;-54
2021/08/19 08:36:53;;;;;;;30.90;12.97;;;;;;;16.58;100.00;100648.28;2634760;36;20416;-51
2021/08/19 08:39:25;;;;;;;41.97;16.80;;;;;;;16.71;100.00;100647.63;2619431;47;20403;-53
2021/08/19 08:41:57;;;;;;;21.93;9.47;;;;;;;16.74;100.00;100657.22;2617801;46;20458;-54
2021/08/19 08:44:28;;;;;;;12.80;5.90;;;;;;;16.67;100.00;100657.97;2619187;47;20870;-53
2021/08/19 08:46:58;;;;;;;11.57;6.90;;;;;;;16.72;100.00;100654.56;2618946;39;20820;-55
2021/08/19 08:49:27;;;;;;;35.33;9.77;;;;;;;16.92;100.00;100663.56;2619327;47;20396;-55
2021/08/19 08:51:59;;;;;;;19.00;10.10;;;;;;;16.95;100.00;100663.56;2625066;36;20453;-53
2021/08/19 08:54:31;;;;;;;13.80;6.50;;;;;;;17.31;100.00;100662.34;2619292;47;20613;-54
2021/08/19 08:57:04;;;;;;;14.50;5.83;;;;;;;17.35;100.00;100658.94;2618555;47;20435;-52
2021/08/19 08:59:33;;;;;;;13.50;6.27;;;;;;;17.18;100.00;100665.66;2619096;47;20878;-55
2021/08/19 09:02:03;;;;;;;14.77;6.50;;;;;;;17.30;100.00;100658.00;2618590;47;20444;-50
2021/08/19 09:04:32;;;;;;;15.20;6.57;;;;;;;17.30;100.00;100655.38;2621135;36;20439;-52
2021/08/19 09:07:06;;;;;;;12.67;6.73;;;;;;;17.49;100.00;100656.47;2623606;36;20450;-52
2021/08/19 09:09:36;;;;;;;13.93;6.43;;;;;;;17.68;100.00;100652.34;2619747;47;20384;-52
2021/08/19 09:12:10;;;;;;;15.03;8.07;;;;;;;17.52;100.00;100656.53;2637823;36;20441;-51
2021/08/19 09:14:41;;;;;;;23.47;11.43;;;;;;;17.50;100.00;100647.81;2619823;46;20447;-52
2021/08/19 09:17:10;;;;;;;32.75;15.38;;;;;;;17.84;100.00;100647.28;2640182;36;20519;-55
2021/08/19 09:19:40;;;;;;;30.30;14.90;;;;;;;17.90;100.00;100647.34;2619624;46;20151;-51
2021/08/19 09:22:13;;;;;;;12.35;4.63;;;;;;;17.93;100.00;100651.72;2623002;36;21149;-53
2021/08/19 09:24:42;;;;;;;11.27;5.75;;;;;;;17.95;100.00;100645.66;2619669;46;20158;-53
2021/08/19 09:27:16;;;;;;;28.37;11.23;;;;;;;17.95;100.00;100639.56;2617832;46;20163;-53
2021/08/19 09:29:49;;;;;;;20.97;7.83;;;;;;;17.73;100.00;100633.28;2617116;54;20891;-56
2021/08/19 09:32:23;;;;;;;23.73;9.40;;;;;;;17.77;100.00;100640.25;2616795;46;20436;-56
2021/08/19 09:34:53;;;;;;;25.17;11.57;;;;;;;17.83;100.00;100635.09;2618564;46;20424;-52
2021/08/19 09:37:23;;;;;;;16.10;6.87;;;;;;;17.89;100.00;100635.16;2619547;46;20424;-56
2021/08/19 09:39:58;;;;;;;18.67;8.77;;;;;;;17.78;100.00;100632.44;2619590;46;20397;-53
2021/08/19 09:42:40;;;;;;;9.03;5.00;;;;;;;17.90;100.00;100636.91;2619762;46;20458;-52
2021/08/19 09:45:20;;;;;;;10.37;5.10;;;;;;;17.84;100.00;100639.44;2618851;46;20430;-51
2021/08/19 09:47:49;;;;;;;11.17;6.30;;;;;;;17.71;100.00;100635.84;2619732;47;20411;-53
2021/08/19 09:50:21;;;;;;;15.30;7.97;;;;;;;17.85;100.00;100633.41;2619563;46;20418;-56
2021/08/19 09:52:53;;;;;;;42.33;19.03;;;;;;;17.88;100.00;100637.75;2619197;46;20439;-54
2021/08/19 09:55:25;;;;;;;67.10;26.57;;;;;;;18.01;100.00;100641.34;2619648;46;20431;-53
2021/08/19 09:57:58;;;;;;;24.47;9.00;;;;;;;17.73;100.00;100643.72;2619307;46;20428;-53
2021/08/19 10:00:29;;;;;;;34.23;15.00;;;;;;;17.75;100.00;100639.38;2619750;47;20854;-55
2021/08/19 10:03:01;;;;;;;19.30;10.30;;;;;;;17.88;100.00;100638.63;2619222;46;20446;-54
2021/08/19 10:05:30;;;;;;;13.73;6.20;;;;;;;17.95;100.00;100650.88;2619458;46;20416;-53
2021/08/19 10:08:01;;;;;;;18.92;6.50;;;;;;;17.72;100.00;100653.25;2619355;46;20381;-53
2021/08/19 10:10:31;;;;;;;19.60;8.93;;;;;;;17.76;100.00;100649.81;2619648;46;20160;-51
2021/08/19 10:13:05;;;;;;;29.00;12.80;;;;;;;17.74;100.00;100648.06;2619551;46;20432;-55
2021/08/19 10:15:37;;;;;;;15.37;8.87;;;;;;;17.84;100.00;100651.63;2619617;46;20150;-53
2021/08/19 10:18:08;;;;;;;26.50;12.53;;;;;;;17.86;100.00;100645.56;2619624;47;20412;-54
2021/08/19 10:20:40;;;;;;;10.77;5.57;;;;;;;17.74;100.00;100650.66;2619744;47;20392;-52
2021/08/19 10:23:11;;;;;;;21.33;8.88;;;;;;;17.76;100.00;100660.25;2636360;36;20676;-54
2021/08/19 10:25:42;;;;;;;17.50;9.00;;;;;;;17.63;100.00;100663.56;2618340;46;20151;-49
2021/08/19 10:28:18;;;;;;;38.47;12.60;;;;;;;17.52;100.00;100650.41;2639144;36;20796;-55
2021/08/19 10:30:53;;;;;;;37.60;15.57;;;;;;;17.74;100.00;100646.31;2618404;47;20423;-55
2021/08/19 10:33:44;;;;;;;19.00;7.00;;;;;;;17.84;100.00;100647.28;2638258;36;20744;-53
2021/08/19 10:36:49;;;;;;;21.03;6.13;;;;;;;17.94;100.00;100641.28;2618102;46;20529;-55
2021/08/19 10:39:43;;;;;;;18.23;8.23;;;;;;;17.93;100.00;100644.78;2619659;36;20447;-53
2021/08/19 10:42:31;;;;;;;18.77;10.00;;;;;;;17.79;100.00;100631.56;2636147;36;20542;-53
2021/08/19 10:45:03;;;;;;;18.20;6.80;;;;;;;17.83;100.00;100635.09;2618180;46;20425;-52
2021/08/19 10:47:42;;;;;;;17.80;6.90;;;;;;;17.55;100.00;100635.66;2619294;36;20439;-55
2021/08/19 10:50:30;;;;;;;18.67;7.50;;;;;;;17.53;100.00;100637.41;2618411;46;20403;-54
2021/08/19 10:53:12;;;;;;;12.60;5.75;;;;;;;17.79;100.00;100635.94;2617865;47;20454;-48
2021/08/19 10:55:43;;;;;;;14.87;6.00;;;;;;;17.86;100.00;100640.34;2618395;47;20139;-48
2021/08/19 10:58:28;;;;;;;12.80;5.70;;;;;;;17.92;100.00;100642.13;2622428;36;21617;-49
2021/08/19 11:01:01;;;;;;;16.90;7.20;;;;;;;17.96;100.00;100646.53;2618413;47;20385;-49
2021/08/19 11:03:45;;;;;;;14.90;8.00;;;;;;;18.14;100.00;100645.84;2618012;46;20424;-48
2021/08/19 11:06:17;;;;;;;19.13;5.90;;;;;;;17.97;100.00;100647.41;2618188;47;20150;-47
2021/08/19 11:08:51;;;;;;;48.67;17.20;;;;;;;17.94;100.00;100643.91;2617925;46;20159;-48
2021/08/19 11:11:35;;;;;;;17.33;8.15;;;;;;;18.19;100.00;100635.44;2618091;47;20908;-47
2021/08/19 11:14:10;;;;;;;25.33;14.20;;;;;;;18.30;100.00;100635.56;2619358;36;20189;-49
2021/08/19 11:16:44;;;;;;;23.07;9.03;;;;;;;18.25;100.00;100632.03;2618116;47;20394;-50
2021/08/19 11:19:22;;;;;;;18.83;8.93;;;;;;;18.29;100.00;100633.78;2622086;36;20946;-49
2021/08/19 11:21:55;;;;;;;12.33;6.23;;;;;;;18.38;100.00;100623.41;2617954;47;20416;-47
2021/08/19 11:24:27;;;;;;;16.23;7.20;;;;;;;18.60;100.00;100629.66;2619414;46;20412;-46